Castlederg, United Kingdom
Current Conditions -  °F | °C
As of 2:20 PM on Sunday 23 Nov 2014 (Local Time) from EGAE Reporting Station
Few Clouds Few Clouds  
Wind Chill: 40°   Ceiling: Unl
Heat Index: 46°   Visibility: 6mi
Dew Point: 41°   Wind: 14mph
Humidity: 81%   Direction: 230°SW
Pressure: 30.06"   Gusts: NA
Location:  54.7°N, 7.6°W
Report Text: EGAE 231420Z 23012KT 9999 FEW025 08/05 Q1018
Loading
Personal Weather Stations






























Interactive Weather Map New forecast layout! Learn more

10-Day Weather Forecast

Advertisements
Track Severe Weather on mobile